Time;durP1;ratioP1;P1;durP2;ratioP2;P2;SDS_P1;SDS_P2;PMS_P1;PMS_P2;Temp;Humidity;BMP_temperature;BMP_pressure;BME280_temperature;BME280_humidity;BME280_pressure;Samples;Min_cycle;Max_cycle;Signal;HPM_P1;HPM_P2
2022/03/03 00:02:19;;;;;;;16.33;6.57;;;-3.40;99.90;;;;;;5055471;28;20480;-61
2022/03/03 00:04:45;;;;;;;19.85;7.13;;;-3.40;99.90;;;;;;5055663;28;20412;-60
2022/03/03 00:07:10;;;;;;;16.25;6.00;;;-3.40;99.90;;;;;;5054016;28;20053;-61
2022/03/03 00:09:36;;;;;;;20.60;6.95;;;-3.40;99.90;;;;;;5055638;28;20028;-61
2022/03/03 00:12:02;;;;;;;16.55;6.07;;;-3.50;99.90;;;;;;5055254;28;20033;-61
2022/03/03 00:14:27;;;;;;;18.45;7.05;;;-3.50;99.90;;;;;;5055290;28;20472;-61
2022/03/03 00:16:53;;;;;;;18.40;6.28;;;-1.20;99.90;;;;;;5055293;28;20029;-61
2022/03/03 00:19:18;;;;;;;15.02;6.45;;;-3.60;99.90;;;;;;5055139;28;20025;-61
2022/03/03 00:21:44;;;;;;;18.33;5.90;;;-3.60;99.90;;;;;;5055123;28;20043;-61
2022/03/03 00:24:10;;;;;;;15.10;6.70;;;-3.60;99.90;;;;;;5053824;28;20051;-61
2022/03/03 00:26:35;;;;;;;16.08;7.07;;;-3.60;99.90;;;;;;5054678;28;20477;-61
2022/03/03 00:29:01;;;;;;;14.15;6.10;;;-3.60;99.90;;;;;;5054719;28;20021;-61
2022/03/03 00:31:27;;;;;;;17.92;7.00;;;-3.60;99.90;;;;;;5053626;28;20029;-61
2022/03/03 00:33:52;;;;;;;14.55;5.82;;;-3.60;99.90;;;;;;5054639;28;20492;-61
2022/03/03 00:36:18;;;;;;;16.67;6.63;;;-3.60;99.90;;;;;;5053601;28;20120;-61
2022/03/03 00:38:43;;;;;;;14.70;6.18;;;-3.70;99.90;;;;;;5054805;28;20052;-61
2022/03/03 00:41:09;;;;;;;14.18;5.82;;;-3.70;99.90;;;;;;5036899;28;20029;-61
2022/03/03 00:43:35;;;;;;;15.32;6.22;;;-3.80;99.90;;;;;;5053422;28;20028;-61
2022/03/03 00:46:01;;;;;;;21.27;6.63;;;-3.80;99.90;;;;;;5053376;28;20078;-61
2022/03/03 00:48:29;;;;;;;14.80;5.97;;;-2.30;99.90;;;;;;5055205;28;20037;-61
2022/03/03 00:50:55;;;;;;;17.80;6.22;;;-3.90;99.90;;;;;;5054547;28;20033;-61
2022/03/03 00:53:20;;;;;;;12.40;6.53;;;-3.90;99.90;;;;;;5053236;28;20033;-61
2022/03/03 00:55:46;;;;;;;13.75;5.63;;;-3.90;99.90;;;;;;5054253;28;20017;-61
2022/03/03 00:58:11;;;;;;;11.70;5.55;;;-3.90;99.90;;;;;;5054443;28;20059;-61
2022/03/03 01:00:37;;;;;;;14.73;5.30;;;-4.00;99.90;;;;;;5054298;28;20029;-61
2022/03/03 01:03:03;;;;;;;17.63;6.80;;;-4.00;99.90;;;;;;5054650;28;20016;-61
2022/03/03 01:05:29;;;;;;;18.58;6.72;;;-2.00;99.90;;;;;;5053071;28;20385;-61
2022/03/03 01:07:54;;;;;;;12.60;5.80;;;-4.00;99.90;;;;;;5054383;28;20080;-61
2022/03/03 01:10:20;;;;;;;11.38;5.88;;;-4.00;99.90;;;;;;5053306;28;20036;-61
2022/03/03 01:12:45;;;;;;;15.20;6.47;;;-4.10;99.90;;;;;;5053147;28;20453;-61
2022/03/03 01:15:12;;;;;;;17.02;6.05;;;-4.10;99.90;;;;;;5054302;28;20075;-61
2022/03/03 01:17:38;;;;;;;14.10;5.50;;;-4.10;99.90;;;;;;5052871;28;20439;-61
2022/03/03 01:20:06;;;;;;;15.40;5.75;;;-4.20;99.90;;;;;;5054066;28;20041;-61
2022/03/03 01:22:32;;;;;;;19.35;6.40;;;-4.20;99.90;;;;;;5052802;28;20032;-61
2022/03/03 01:24:57;;;;;;;12.70;5.28;;;-4.20;99.90;;;;;;5054338;28;20108;-61
2022/03/03 01:27:24;;;;;;;22.00;5.47;;;-4.20;99.90;;;;;;5054062;28;20059;-61
2022/03/03 01:29:50;;;;;;;18.05;5.88;;;-1.90;99.90;;;;;;5052594;28;20487;-61
2022/03/03 01:32:15;;;;;;;18.38;6.13;;;-4.20;99.90;;;;;;5052757;28;20119;-61
2022/03/03 01:34:41;;;;;;;12.30;5.75;;;-4.20;99.90;;;;;;5053887;28;20025;-61
2022/03/03 01:37:07;;;;;;;13.65;5.25;;;-4.30;99.90;;;;;;5053909;28;20071;-60
2022/03/03 01:39:33;;;;;;;14.57;6.88;;;-4.30;99.90;;;;;;5053873;28;20027;-61
2022/03/03 01:41:59;;;;;;;12.85;5.68;;;-4.30;99.90;;;;;;5053749;28;20056;-61
2022/03/03 01:44:25;;;;;;;14.00;5.47;;;-3.50;99.90;;;;;;5053893;28;20029;-61
2022/03/03 01:46:56;;;;;;;16.17;5.57;;;-4.30;99.90;;;;;;5053761;28;20109;-61
2022/03/03 01:49:23;;;;;;;18.52;5.40;;;-4.40;99.90;;;;;;5052599;28;20385;-61
2022/03/03 01:51:49;;;;;;;10.10;5.25;;;-4.40;99.90;;;;;;5053627;28;20090;-61
2022/03/03 01:54:15;;;;;;;12.45;5.32;;;-4.40;99.90;;;;;;5053661;28;20429;-61
2022/03/03 01:56:41;;;;;;;14.98;6.13;;;-4.40;99.90;;;;;;5053962;28;20051;-60
2022/03/03 01:59:09;;;;;;;19.92;6.88;;;-4.40;99.90;;;;;;5053326;28;20106;-61
2022/03/03 02:01:36;;;;;;;16.13;6.38;;;-4.40;99.90;;;;;;5053785;28;20158;-61
2022/03/03 02:04:06;;;;;;;13.98;5.47;;;-4.40;99.90;;;;;;5053309;28;20404;-61
2022/03/03 02:06:32;;;;;;;13.35;6.00;;;-4.40;99.90;;;;;;5055357;28;20505;-61
2022/03/03 02:08:58;;;;;;;16.15;6.38;;;-4.40;99.90;;;;;;5057851;28;20056;-61
2022/03/03 02:11:24;;;;;;;20.38;6.63;;;-4.30;99.90;;;;;;5056269;28;20044;-61
2022/03/03 02:13:50;;;;;;;15.45;5.93;;;-4.50;99.90;;;;;;5057667;28;20032;-61
2022/03/03 02:16:15;;;;;;;18.23;6.38;;;-4.50;99.90;;;;;;5055933;28;20033;-60
2022/03/03 02:18:44;;;;;;;12.90;6.35;;;-4.50;99.90;;;;;;5057463;28;20032;-61
2022/03/03 02:21:15;;;;;;;17.55;6.97;;;-4.60;99.90;;;;;;5056167;28;20499;-61
2022/03/03 02:23:41;;;;;;;9.50;5.25;;;-4.60;99.90;;;;;;5057054;28;20465;-61
2022/03/03 02:26:17;;;;;;;11.93;5.50;;;-4.60;99.90;;;;;;5057569;28;20025;-61
2022/03/03 02:28:43;;;;;;;16.92;6.18;;;-4.60;99.90;;;;;;5057555;28;20017;-61
2022/03/03 02:31:09;;;;;;;12.85;5.25;;;-4.60;99.90;;;;;;5055950;28;20535;-61
2022/03/03 02:33:35;;;;;;;12.23;5.28;;;-4.70;99.90;;;;;;5057225;28;20535;-60
2022/03/03 02:36:17;;;;;;;15.32;6.82;;;-4.70;99.90;;;;;;5057349;28;20047;-61
2022/03/03 02:38:44;;;;;;;13.70;5.82;;;-4.70;99.90;;;;;;5057146;28;20028;-61
2022/03/03 02:41:09;;;;;;;13.10;6.38;;;-4.60;99.90;;;;;;5056378;28;20033;-61
2022/03/03 02:43:35;;;;;;;13.32;5.72;;;-4.70;99.90;;;;;;5057057;28;20098;-61
2022/03/03 02:46:01;;;;;;;21.92;6.50;;;-4.70;99.90;;;;;;5055724;28;20029;-61
2022/03/03 02:48:27;;;;;;;18.67;6.68;;;-4.70;99.90;;;;;;5056917;28;20078;-60
2022/03/03 02:50:53;;;;;;;18.20;5.90;;;-4.80;99.90;;;;;;5056996;28;20032;-61
2022/03/03 02:53:18;;;;;;;16.08;6.43;;;-4.70;99.90;;;;;;5057184;28;20059;-60
2022/03/03 02:55:44;;;;;;;11.82;6.07;;;-4.70;99.90;;;;;;5055513;28;20032;-61
2022/03/03 02:58:11;;;;;;;17.38;6.30;;;-4.70;99.90;;;;;;5056766;28;20032;-61
2022/03/03 03:00:43;;;;;;;22.38;7.00;;;-4.80;99.90;;;;;;5056427;28;20362;-61
2022/03/03 03:03:09;;;;;;;11.40;5.43;;;-3.40;99.90;;;;;;5055443;28;20029;-61
2022/03/03 03:05:36;;;;;;;19.42;7.68;;;-4.80;99.90;;;;;;5056611;28;20043;-60
2022/03/03 03:08:02;;;;;;;16.50;6.07;;;-4.80;99.90;;;;;;5056136;28;20103;-61
2022/03/03 03:10:28;;;;;;;13.07;5.57;;;-4.80;99.90;;;;;;5055148;28;20029;-61
2022/03/03 03:12:54;;;;;;;16.70;6.93;;;-4.90;99.90;;;;;;5056457;28;20108;-61
2022/03/03 03:15:19;;;;;;;12.07;6.25;;;-2.80;99.90;;;;;;5056421;28;20032;-61
2022/03/03 03:17:45;;;;;;;19.73;8.07;;;-4.90;99.90;;;;;;5056138;28;20384;-61
2022/03/03 03:20:12;;;;;;;19.55;5.78;;;-4.90;99.90;;;;;;5056421;28;20060;-60
2022/03/03 03:22:38;;;;;;;17.50;6.60;;;-4.90;99.90;;;;;;5055142;28;20094;-61
2022/03/03 03:25:07;;;;;;;14.73;6.25;;;-2.50;99.90;;;;;;5054956;28;20111;-60
2022/03/03 03:27:33;;;;;;;15.20;5.85;;;-4.90;99.90;;;;;;5056221;28;20021;-60
2022/03/03 03:29:59;;;;;;;13.25;6.47;;;-4.90;99.90;;;;;;5056061;28;20385;-61
2022/03/03 03:32:25;;;;;;;12.68;5.22;;;-5.00;99.90;;;;;;5056579;28;20041;-61
2022/03/03 03:34:51;;;;;;;18.27;6.63;;;-5.00;99.90;;;;;;5055727;28;20025;-61
2022/03/03 03:37:16;;;;;;;14.35;5.90;;;-5.00;99.90;;;;;;5056028;28;20103;-61
2022/03/03 03:39:43;;;;;;;16.38;6.43;;;-5.00;99.90;;;;;;5055971;28;20025;-61
2022/03/03 03:42:08;;;;;;;16.05;5.93;;;-5.00;99.90;;;;;;5054647;28;20036;-61
2022/03/03 03:44:35;;;;;;;11.48;6.10;;;-5.00;99.90;;;;;;5055921;28;20025;-60
2022/03/03 03:47:01;;;;;;;14.73;6.72;;;-5.00;99.90;;;;;;5056014;28;20052;-61
2022/03/03 03:49:27;;;;;;;15.18;6.07;;;-5.00;99.90;;;;;;5055630;28;20052;-61
2022/03/03 03:51:53;;;;;;;18.90;7.20;;;-2.90;99.90;;;;;;5054432;28;20117;-61
2022/03/03 03:54:19;;;;;;;16.33;6.43;;;-5.10;99.90;;;;;;5055712;28;20029;-60
2022/03/03 03:56:45;;;;;;;17.25;6.32;;;-5.10;99.90;;;;;;5055336;28;20497;-61
2022/03/03 03:59:10;;;;;;;15.27;6.30;;;-5.10;99.90;;;;;;5054334;28;20049;-61
2022/03/03 04:01:36;;;;;;;15.85;6.18;;;-5.10;99.90;;;;;;5055646;28;20029;-61
2022/03/03 04:04:02;;;;;;;16.92;7.10;;;-3.00;99.90;;;;;;5055268;28;20070;-61
2022/03/03 04:06:28;;;;;;;16.33;6.53;;;-5.10;99.90;;;;;;5054380;28;20052;-60
2022/03/03 04:08:53;;;;;;;17.05;6.63;;;-5.10;99.90;;;;;;5055456;28;20029;-60
2022/03/03 04:11:19;;;;;;;13.85;6.75;;;-5.10;99.90;;;;;;5055281;28;20025;-61
2022/03/03 04:13:45;;;;;;;14.20;6.85;;;-5.10;99.90;;;;;;5055311;28;20040;-60
2022/03/03 04:16:11;;;;;;;22.58;7.22;;;-5.10;99.90;;;;;;5054002;28;20036;-61
2022/03/03 04:18:37;;;;;;;18.85;7.35;;;-5.10;99.90;;;;;;5054947;28;20350;-60
2022/03/03 04:21:05;;;;;;;15.93;6.78;;;-5.20;99.90;;;;;;5055290;28;20028;-60
2022/03/03 04:23:31;;;;;;;17.80;7.05;;;-5.20;99.90;;;;;;5053862;28;20025;-61
2022/03/03 04:25:57;;;;;;;15.02;6.68;;;-5.20;99.90;;;;;;5055377;28;20104;-61
2022/03/03 04:28:23;;;;;;;21.25;6.68;;;-5.20;99.90;;;;;;5054996;28;20025;-61
2022/03/03 04:30:48;;;;;;;17.10;6.60;;;-5.30;99.90;;;;;;5053407;28;20039;-60
2022/03/03 04:33:15;;;;;;;19.23;6.85;;;-5.30;99.90;;;;;;5054685;28;20031;-61
2022/03/03 04:35:41;;;;;;;17.65;7.50;;;-5.30;99.90;;;;;;5054866;28;20025;-60
2022/03/03 04:38:06;;;;;;;18.85;6.97;;;-3.10;99.90;;;;;;5054873;28;20070;-61
2022/03/03 04:40:32;;;;;;;18.58;6.95;;;-5.30;99.90;;;;;;5054004;28;20029;-61
2022/03/03 04:42:58;;;;;;;18.30;7.40;;;-5.30;99.90;;;;;;5053502;28;20032;-62
2022/03/03 04:45:23;;;;;;;20.75;6.70;;;-5.30;99.90;;;;;;5054481;28;20029;-60
2022/03/03 04:47:49;;;;;;;19.70;7.80;;;-5.30;99.90;;;;;;5053462;28;20021;-61
2022/03/03 04:50:15;;;;;;;16.85;7.50;;;-5.30;99.90;;;;;;5054600;28;20037;-60
2022/03/03 04:52:41;;;;;;;17.00;6.80;;;-5.30;99.90;;;;;;5053275;28;20123;-64
2022/03/03 04:55:07;;;;;;;21.95;7.40;;;-5.30;99.90;;;;;;5054847;28;20033;-60
2022/03/03 04:57:33;;;;;;;15.25;6.72;;;-5.30;99.90;;;;;;5054446;28;20490;-60
2022/03/03 04:59:59;;;;;;;19.58;7.18;;;-5.30;99.90;;;;;;5054457;28;20108;-60
2022/03/03 05:02:24;;;;;;;17.33;7.20;;;-5.30;99.90;;;;;;5053135;28;20461;-61
2022/03/03 05:04:50;;;;;;;17.38;6.95;;;-5.30;99.90;;;;;;5053031;28;20021;-61
2022/03/03 05:07:16;;;;;;;15.85;7.38;;;-5.30;99.90;;;;;;5053021;28;20049;-61
2022/03/03 05:09:42;;;;;;;21.08;7.25;;;-5.30;99.90;;;;;;5053029;28;20062;-62
2022/03/03 05:12:08;;;;;;;15.75;6.68;;;-5.00;99.90;;;;;;5052847;28;20033;-61
2022/03/03 05:14:33;;;;;;;14.23;6.82;;;-5.40;99.90;;;;;;5054170;28;20036;-61
2022/03/03 05:16:59;;;;;;;19.90;7.50;;;-5.40;99.90;;;;;;5052864;28;20025;-61
2022/03/03 05:19:25;;;;;;;17.67;7.70;;;-5.40;99.90;;;;;;5054137;28;20029;-61
2022/03/03 05:21:51;;;;;;;17.15;7.43;;;-5.40;99.90;;;;;;5052803;28;20029;-61
2022/03/03 05:24:16;;;;;;;13.40;7.22;;;-5.40;99.90;;;;;;5052729;28;20021;-61
2022/03/03 05:26:42;;;;;;;18.08;7.53;;;-5.40;99.90;;;;;;5052820;28;20036;-61
2022/03/03 05:29:08;;;;;;;18.73;8.63;;;-5.40;99.90;;;;;;5054003;28;20024;-61
2022/03/03 05:31:34;;;;;;;16.80;7.32;;;-3.20;99.90;;;;;;5053860;28;20381;-61
2022/03/03 05:33:59;;;;;;;20.75;7.85;;;-5.40;99.90;;;;;;5053899;28;20029;-61
2022/03/03 05:36:27;;;;;;;15.95;7.78;;;-5.40;99.90;;;;;;5053061;28;20469;-61
2022/03/03 05:38:55;;;;;;;14.50;6.70;;;-5.40;99.90;;;;;;5053841;28;20029;-61
2022/03/03 05:41:21;;;;;;;20.73;8.27;;;-5.40;99.90;;;;;;5051611;28;20036;-61
2022/03/03 05:43:47;;;;;;;18.85;8.15;;;-5.40;99.90;;;;;;5053440;28;20029;-61
2022/03/03 05:46:14;;;;;;;20.83;8.15;;;-4.20;99.90;;;;;;5053889;28;20025;-66
2022/03/03 05:48:40;;;;;;;23.65;7.80;;;-5.40;99.90;;;;;;5054103;28;20035;-60
2022/03/03 05:51:06;;;;;;;19.90;8.27;;;-5.40;99.90;;;;;;5053373;28;20029;-60
2022/03/03 05:53:32;;;;;;;20.70;8.32;;;-3.80;99.90;;;;;;5053873;28;20112;-60
2022/03/03 05:55:59;;;;;;;14.70;7.75;;;-3.90;99.90;;;;;;5053861;28;20083;-60
2022/03/03 05:58:46;;;;;;;16.38;7.72;;;-5.40;99.90;;;;;;5053765;28;20032;-60
2022/03/03 06:01:13;;;;;;;23.30;7.73;;;-5.40;99.90;;;;;;5053720;28;20113;-61
2022/03/03 06:03:40;;;;;;;27.10;8.90;;;-2.90;99.90;;;;;;5053555;28;20056;-60
2022/03/03 06:06:17;;;;;;;18.80;8.52;;;-5.30;99.90;;;;;;5053536;28;20067;-61
2022/03/03 06:09:00;;;;;;;16.10;7.72;;;-5.30;99.90;;;;;;5052501;28;20064;-61
2022/03/03 06:11:27;;;;;;;22.33;7.53;;;-5.30;99.90;;;;;;5053532;28;20029;-61
2022/03/03 06:13:57;;;;;;;18.80;7.93;;;-5.20;99.90;;;;;;5052209;28;20032;-61
2022/03/03 06:16:25;;;;;;;18.45;7.22;;;-5.20;99.90;;;;;;5053472;28;20068;-61
2022/03/03 06:18:51;;;;;;;13.77;6.07;;;-5.20;99.90;;;;;;5053763;28;20025;-61
2022/03/03 06:21:17;;;;;;;19.25;7.75;;;-5.20;99.90;;;;;;5052153;28;20029;-61
2022/03/03 06:23:43;;;;;;;14.73;8.35;;;-5.10;99.90;;;;;;5053467;28;20451;-61
2022/03/03 06:26:18;;;;;;;22.35;8.35;;;-5.10;99.90;;;;;;5052057;28;20036;-61
2022/03/03 06:28:44;;;;;;;19.95;8.27;;;-5.10;99.90;;;;;;5053539;28;20025;-61
2022/03/03 06:31:10;;;;;;;22.77;8.40;;;-5.00;99.90;;;;;;5053344;28;20037;-62
2022/03/03 06:33:37;;;;;;;22.58;9.15;;;-5.00;99.90;;;;;;5053533;28;20029;-61
2022/03/03 06:36:03;;;;;;;23.92;9.77;;;-4.90;99.90;;;;;;5052040;28;20021;-60
2022/03/03 06:38:29;;;;;;;19.88;8.70;;;-4.80;99.90;;;;;;5053623;28;20485;-61
2022/03/03 06:40:57;;;;;;;18.70;8.40;;;-4.70;99.90;;;;;;5053485;28;20036;-60
2022/03/03 06:43:23;;;;;;;21.88;9.70;;;-4.50;99.90;;;;;;5053229;28;20111;-61
2022/03/03 06:45:48;;;;;;;19.25;8.43;;;-4.30;99.90;;;;;;5051911;28;20120;-61
2022/03/03 06:48:14;;;;;;;21.20;8.98;;;-4.00;99.90;;;;;;5053204;28;20513;-63
2022/03/03 06:50:42;;;;;;;24.00;9.35;;;-3.60;99.90;;;;;;5052100;28;20033;-61
2022/03/03 06:53:08;;;;;;;30.40;10.13;;;-0.90;99.90;;;;;;5055498;28;20032;-61
2022/03/03 06:55:34;;;;;;;27.15;9.55;;;-3.10;99.90;;;;;;5056761;28;20021;-61
2022/03/03 06:58:00;;;;;;;24.60;9.75;;;-2.90;99.90;;;;;;5056707;28;20025;-61
2022/03/03 07:00:32;;;;;;;30.65;10.32;;;-2.60;99.90;;;;;;5056403;28;20384;-61
2022/03/03 07:02:57;;;;;;;23.48;9.85;;;-2.40;99.90;;;;;;5056655;28;20029;-61
2022/03/03 07:05:23;;;;;;;27.20;10.65;;;-1.90;99.90;;;;;;5055540;28;20090;-61
2022/03/03 07:07:52;;;;;;;28.67;11.38;;;-0.40;99.90;;;;;;5054893;28;20052;-60
2022/03/03 07:10:24;;;;;;;21.55;10.80;;;-0.70;99.90;;;;;;5056432;28;20171;-65
2022/03/03 07:12:55;;;;;;;25.17;10.70;;;-1.50;99.90;;;;;;5055724;28;20033;-61
2022/03/03 07:15:25;;;;;;;24.63;11.38;;;-1.30;99.90;;;;;;5054754;28;20029;-61
2022/03/03 07:18:11;;;;;;;20.55;10.20;;;-0.70;99.90;;;;;;5055275;28;20024;-61
2022/03/03 07:20:58;;;;;;;27.00;11.13;;;-0.80;99.90;;;;;;5056343;28;20028;-61
2022/03/03 07:23:30;;;;;;;25.52;10.27;;;-0.50;99.90;;;;;;5056369;28;20027;-61
2022/03/03 07:26:00;;;;;;;24.67;9.73;;;-0.10;99.90;;;;;;5054909;28;20060;-61
2022/03/03 07:28:31;;;;;;;17.90;8.45;;;1.20;99.90;;;;;;5056564;28;20120;-61
2022/03/03 07:31:00;;;;;;;16.83;7.80;;;2.30;99.90;;;;;;5056134;28;20033;-61
2022/03/03 07:33:30;;;;;;;17.48;7.47;;;1.10;99.90;;;;;;5054481;28;20033;-62
2022/03/03 07:35:57;;;;;;;15.55;6.85;;;1.70;99.90;;;;;;5056023;28;20029;-62
2022/03/03 07:38:30;;;;;;;13.93;7.18;;;2.20;98.90;;;;;;5055993;28;20032;-61
2022/03/03 07:40:56;;;;;;;15.18;7.78;;;2.70;98.50;;;;;;5054669;28;20397;-61
2022/03/03 07:43:22;;;;;;;15.50;7.35;;;3.20;96.60;;;;;;5055882;28;20032;-61
2022/03/03 07:45:48;;;;;;;14.73;7.57;;;3.70;94.90;;;;;;5055983;28;20025;-61
2022/03/03 07:48:14;;;;;;;16.75;8.07;;;4.20;92.10;;;;;;5054551;28;20107;-62
2022/03/03 07:50:41;;;;;;;17.40;7.80;;;4.50;91.00;;;;;;5056041;28;20029;-61
2022/03/03 07:53:11;;;;;;;16.73;7.78;;;4.80;86.50;;;;;;5054201;28;20025;-62
2022/03/03 07:55:41;;;;;;;17.48;8.13;;;5.20;83.40;;;;;;5055957;28;20032;-61
2022/03/03 07:58:12;;;;;;;14.50;8.02;;;5.50;76.80;;;;;;5055970;28;20036;-62
2022/03/03 08:00:43;;;;;;;17.55;8.50;;;5.70;72.40;;;;;;5054355;28;20060;-62
2022/03/03 08:03:10;;;;;;;22.00;9.40;;;6.00;69.50;;;;;;5055201;28;20051;-62
2022/03/03 08:05:37;;;;;;;16.10;8.00;;;6.00;61.00;;;;;;5054244;28;20025;-61
2022/03/03 08:08:03;;;;;;;18.05;8.25;;;5.60;61.10;;;;;;5054250;28;20454;-61
2022/03/03 08:10:31;;;;;;;15.82;7.22;;;4.80;63.60;;;;;;5054188;28;20055;-61
2022/03/03 08:12:58;;;;;;;13.98;7.22;;;4.50;68.00;;;;;;5055467;28;20025;-61
2022/03/03 08:15:25;;;;;;;16.70;7.90;;;4.30;71.10;;;;;;5055133;28;20489;-61
2022/03/03 08:17:53;;;;;;;15.23;8.00;;;4.40;71.40;;;;;;5055572;28;20133;-61
2022/03/03 08:20:19;;;;;;;15.40;7.55;;;4.80;67.60;;;;;;5055439;28;20025;-62
2022/03/03 08:22:46;;;;;;;13.50;7.10;;;5.20;66.40;;;;;;5053864;28;20033;-62
2022/03/03 08:25:13;;;;;;;16.70;7.95;;;5.80;63.70;;;;;;5055163;28;20103;-62
2022/03/03 08:27:40;;;;;;;18.42;8.55;;;6.40;58.20;;;;;;5053788;28;20029;-62
2022/03/03 08:30:25;;;;;;;17.48;7.82;;;6.70;54.30;;;;;;5054922;28;20115;-62
2022/03/03 08:33:17;;;;;;;15.27;7.22;;;6.80;52.50;;;;;;5055220;28;20025;-62
2022/03/03 08:35:50;;;;;;;16.23;7.70;;;6.70;51.80;;;;;;5054801;28;20481;-62
2022/03/03 08:38:36;;;;;;;14.07;7.60;;;6.80;51.30;;;;;;5054907;28;20469;-62
2022/03/03 08:41:04;;;;;;;14.98;8.15;;;6.80;50.00;;;;;;5055093;28;20036;-62
2022/03/03 08:43:32;;;;;;;15.23;8.15;;;6.80;49.50;;;;;;5054495;28;20389;-62
2022/03/03 08:46:02;;;;;;;14.13;7.17;;;7.10;49.50;;;;;;5055091;28;20028;-62
2022/03/03 08:48:31;;;;;;;13.27;7.57;;;7.50;47.50;;;;;;5054710;28;20064;-62
2022/03/03 08:51:02;;;;;;;15.60;7.28;;;7.60;47.00;;;;;;5053279;28;20033;-62
2022/03/03 08:53:28;;;;;;;19.92;8.55;;;7.30;45.40;;;;;;5053098;28;20037;-62
2022/03/03 08:55:54;;;;;;;13.70;8.13;;;7.20;45.30;;;;;;5054755;28;20017;-61
2022/03/03 08:58:21;;;;;;;14.48;7.22;;;7.30;45.20;;;;;;5054511;28;20029;-62
2022/03/03 09:00:48;;;;;;;15.05;7.88;;;7.50;45.10;;;;;;5054446;28;20025;-61
2022/03/03 09:03:22;;;;;;;15.25;7.13;;;8.40;44.10;;;;;;5054324;28;20457;-62
2022/03/03 09:05:49;;;;;;;14.57;6.82;;;9.10;41.10;;;;;;5054386;28;20024;-62
2022/03/03 09:08:15;;;;;;;16.73;8.05;;;8.30;40.50;;;;;;5054041;28;20485;-62
2022/03/03 09:10:41;;;;;;;16.08;7.88;;;8.30;41.70;;;;;;5054198;28;20036;-61
2022/03/03 09:13:07;;;;;;;15.02;7.47;;;8.40;40.20;;;;;;5054225;28;20025;-61
2022/03/03 09:15:33;;;;;;;16.42;8.05;;;8.50;39.70;;;;;;5054252;28;20086;-61
2022/03/03 09:18:00;;;;;;;15.48;7.97;;;8.80;39.50;;;;;;5054447;28;20108;-62
2022/03/03 09:20:26;;;;;;;15.88;7.65;;;9.10;38.70;;;;;;5054219;28;20033;-62
2022/03/03 09:22:52;;;;;;;15.73;7.28;;;8.90;38.20;;;;;;5052974;28;20032;-62
2022/03/03 09:25:18;;;;;;;16.27;6.90;;;9.20;38.30;;;;;;5052479;28;20079;-62
2022/03/03 09:27:43;;;;;;;16.92;7.57;;;9.30;38.20;;;;;;5054051;28;20025;-62
2022/03/03 09:30:10;;;;;;;12.68;6.93;;;9.70;37.20;;;;;;5054339;28;20108;-62
2022/03/03 09:32:36;;;;;;;14.13;6.82;;;9.90;36.70;;;;;;5054237;28;20065;-62
2022/03/03 09:35:03;;;;;;;12.25;7.30;;;10.10;35.60;;;;;;5053845;28;20057;-62
2022/03/03 09:37:29;;;;;;;12.02;6.75;;;10.30;34.20;;;;;;5054139;28;20086;-62
2022/03/03 09:39:54;;;;;;;12.15;7.20;;;10.40;34.10;;;;;;5054193;28;20408;-62
2022/03/03 09:42:20;;;;;;;15.63;7.40;;;10.80;34.50;;;;;;5054087;28;20465;-62
2022/03/03 09:44:46;;;;;;;14.40;7.20;;;11.20;33.20;;;;;;5053789;28;20063;-63
2022/03/03 09:47:12;;;;;;;14.18;7.45;;;11.70;32.40;;;;;;5053522;28;20032;-62
2022/03/03 09:49:39;;;;;;;13.18;7.13;;;12.00;30.90;;;;;;5053984;28;20029;-62
2022/03/03 09:52:18;;;;;;;12.68;7.03;;;12.20;30.70;;;;;;5053669;28;20033;-62
2022/03/03 09:54:46;;;;;;;;;;;12.70;30.40;;;;;;5054390;28;20033;-63
2022/03/03 09:57:12;;;;;;;14.07;7.57;;;12.80;30.20;;;;;;5054047;28;20311;-62
2022/03/03 09:59:37;;;;;;;10.88;6.50;;;12.30;30.50;;;;;;5053584;28;20078;-62
2022/03/03 10:02:06;;;;;;;14.98;7.40;;;12.40;30.30;;;;;;5053654;28;20051;-62
2022/03/03 10:04:32;;;;;;;;;;;12.70;29.60;;;;;;5054073;28;20043;-62
2022/03/03 10:07:10;;;;;;;10.43;6.28;;;12.80;29.00;;;;;;5053640;28;20368;-62
2022/03/03 10:09:59;;;;;;;16.73;7.88;;;12.40;29.00;;;;;;5053865;28;20029;-62
2022/03/03 10:12:26;;;;;;;10.13;6.78;;;13.00;29.40;;;;;;5053282;28;20033;-62
2022/03/03 10:14:57;;;;;;;;;;;13.80;28.70;;;;;;5054008;28;20078;-62
2022/03/03 10:17:34;;;;;;;12.52;7.40;;;14.10;28.10;;;;;;5053217;28;20361;-62
2022/03/03 10:20:02;;;;;;;12.55;6.78;;;13.60;27.80;;;;;;5053678;28;20030;-62
2022/03/03 10:22:42;;;;;;;11.18;6.95;;;13.60;28.40;;;;;;5053725;28;20031;-62
2022/03/03 10:25:13;;;;;;;13.68;7.05;;;14.30;27.80;;;;;;5053528;28;20103;-62
2022/03/03 10:27:40;;;;;;;12.75;6.93;;;14.60;27.50;;;;;;5054744;28;20025;-62
2022/03/03 10:30:10;;;;;;;13.30;7.45;;;14.30;26.90;;;;;;5056863;28;20078;-62
2022/03/03 10:32:38;;;;;;;10.45;6.25;;;14.30;27.40;;;;;;5057049;28;20390;-62
2022/03/03 10:35:30;;;;;;;12.95;7.10;;;14.00;27.30;;;;;;5057204;28;20025;-62
2022/03/03 10:38:03;;;;;;;13.82;7.47;;;13.90;27.00;;;;;;5053614;28;20039;-62
2022/03/03 10:40:29;;;;;;;11.82;6.63;;;13.20;27.70;;;;;;5056020;28;20043;-62
2022/03/03 10:42:55;;;;;;;13.43;7.40;;;13.40;28.10;;;;;;5056912;28;20021;-62
2022/03/03 10:45:21;;;;;;;12.05;6.85;;;13.30;28.20;;;;;;5057031;28;20021;-62
2022/03/03 10:48:07;;;;;;;14.55;7.32;;;13.20;27.90;;;;;;5057103;28;20021;-62
2022/03/03 10:50:50;;;;;;;12.27;6.90;;;13.50;28.50;;;;;;5056790;28;20071;-62
2022/03/03 10:53:18;;;;;;;17.13;8.50;;;14.20;28.00;;;;;;5057273;28;20037;-62
2022/03/03 10:56:07;;;;;;;12.88;7.03;;;14.00;27.50;;;;;;5057048;28;20047;-62
2022/03/03 10:59:04;;;;;;;;;;;14.20;27.60;;;;;;5057434;28;20021;-62
2022/03/03 11:01:32;;;;;;;12.02;6.38;;;14.50;27.00;;;;;;5047232;28;19908;-62
2022/03/03 11:04:00;;;;;;;11.82;6.28;;;14.30;27.30;;;;;;5055424;28;20029;-62
2022/03/03 11:06:33;;;;;;;13.63;7.50;;;13.90;27.60;;;;;;5055159;28;20056;-62
2022/03/03 11:09:00;;;;;;;13.65;6.70;;;14.10;27.60;;;;;;5056857;28;20108;-62
2022/03/03 11:11:26;;;;;;;13.35;6.75;;;14.30;27.30;;;;;;5056553;28;20040;-62
2022/03/03 11:13:53;;;;;;;13.07;6.75;;;14.10;27.40;;;;;;5056528;28;20055;-62
2022/03/03 11:16:25;;;;;;;13.68;8.10;;;14.40;26.90;;;;;;5056162;28;20402;-62
2022/03/03 11:18:51;;;;;;;12.45;7.63;;;14.20;27.00;;;;;;5056378;28;20373;-62
2022/03/03 11:21:18;;;;;;;11.15;7.55;;;13.90;27.40;;;;;;5056355;28;20025;-62
2022/03/03 11:23:46;;;;;;;12.88;6.95;;;14.10;27.30;;;;;;5056310;28;20036;-62
2022/03/03 11:26:39;;;;;;;16.63;6.85;;;14.30;26.80;;;;;;5054980;28;20029;-62
2022/03/03 11:29:20;;;;;;;14.40;7.10;;;14.30;26.90;;;;;;5056184;28;20025;-62
2022/03/03 11:32:00;;;;;;;10.65;6.40;;;14.50;27.30;;;;;;5054826;28;20029;-62
2022/03/03 11:34:32;;;;;;;11.90;7.28;;;14.50;27.60;;;;;;5055877;28;20477;-62
2022/03/03 11:37:09;;;;;;;13.43;8.82;;;15.60;26.60;;;;;;5056026;28;20025;-62
2022/03/03 11:39:38;;;;;;;13.70;6.70;;;16.80;26.00;;;;;;5054602;28;20023;-62
2022/03/03 11:42:45;;;;;;;12.82;6.10;;;17.40;23.90;;;;;;5055884;28;20036;-62
2022/03/03 11:45:14;;;;;;;12.73;6.45;;;17.20;23.40;;;;;;5049740;28;20037;-62
2022/03/03 11:47:45;;;;;;;11.38;6.70;;;16.20;23.90;;;;;;5055734;28;20458;-56
2022/03/03 11:50:16;;;;;;;11.65;7.20;;;15.50;24.60;;;;;;5055601;28;20025;-56
2022/03/03 11:52:45;;;;;;;10.55;7.13;;;15.20;25.40;;;;;;5055382;28;20381;-64
2022/03/03 11:55:31;;;;;;;11.67;7.50;;;15.70;25.70;;;;;;5055645;28;20091;-63
2022/03/03 11:58:13;;;;;;;10.93;6.85;;;15.90;25.00;;;;;;5054501;28;20271;-62
2022/03/03 12:00:41;;;;;;;12.18;6.95;;;17.20;24.40;;;;;;5055265;28;20472;-62
2022/03/03 12:06:11;;;;;;;9.55;5.82;;;17.70;23.60;;;;;;5054991;28;20476;-63
2022/03/03 12:08:41;;;;;;;10.63;5.75;;;17.40;22.30;;;;;;5055562;28;20025;-63
2022/03/03 12:11:15;;;;;;;10.23;6.68;;;17.80;21.80;;;;;;5055252;28;20087;-63
2022/03/03 12:13:41;;;;;;;12.50;6.97;;;17.80;22.80;;;;;;5055383;28;20032;-63
2022/03/03 12:16:23;;;;;;;13.82;7.78;;;17.90;22.30;;;;;;5055232;28;20365;-63
2022/03/03 12:18:58;;;;;;;10.65;6.45;;;17.70;22.80;;;;;;5055164;28;20029;-63
2022/03/03 12:22:01;;;;;;;13.73;6.70;;;17.60;22.40;;;;;;5053755;28;20086;-63
2022/03/03 12:24:33;;;;;;;13.18;7.50;;;17.70;22.80;;;;;;5033322;28;20120;-63
2022/03/03 12:27:01;;;;;;;13.13;7.05;;;17.50;23.00;;;;;;5055127;28;20025;-64
2022/03/03 12:29:52;;;;;;;11.98;8.43;;;17.80;22.70;;;;;;5055002;28;20028;-63
2022/03/03 12:32:56;;;;;;;14.52;8.75;;;17.00;23.00;;;;;;5054871;28;20469;-63
2022/03/03 12:35:29;;;;;;;15.93;8.13;;;16.60;24.00;;;;;;5033346;28;20048;-63
2022/03/03 12:37:58;;;;;;;12.85;7.85;;;16.40;23.70;;;;;;5055004;28;20049;-63
2022/03/03 12:40:26;;;;;;;13.93;7.65;;;16.50;23.90;;;;;;5053415;28;20028;-63
2022/03/03 12:42:51;;;;;;;13.80;7.93;;;16.60;23.60;;;;;;5054482;28;20021;-63
2022/03/03 12:45:21;;;;;;;16.42;7.93;;;16.30;24.20;;;;;;5054271;28;20500;-63
2022/03/03 12:47:52;;;;;;;13.65;8.32;;;16.50;24.40;;;;;;5053097;28;20473;-63
2022/03/03 12:50:25;;;;;;;15.13;8.50;;;15.80;24.50;;;;;;5052706;28;20429;-63